Westville, IN (46391)

11:58 AM CDT on May 06, 2015 (GMT -0500)
Ridgeview | | Change Station
CLOSE
Current Station
Personal Weather Station
Location: Michigan City, IN
Elevation: 804 ft
Nearby Weather Stations

Elev 804 ft 41.63 °N, 86.86 °W | Updated 8 minutes ago

Mostly Cloudy
Mostly Cloudy
75.4 °F
Feels Like 76 °F
N
3.7
Wind Variable Wind from West

Today
High -- | Low -- °F
--% Chance of Precip.
Yesterday
High -- | Low -- °F
Precip. -- in
5:38 AM 7:50 PM
Waning Gibbous, 93% visible
Pressure 30.19 in
Visibility 4.0 miles
Clouds Mostly Cloudy 12000 ft
Heat Index 76 °F
Dew Point 71 °F
Humidity 85%
Rainfall 0.00 in
Snow Depth Not available.
UV 5 out of 12
Pollen 8.20 out of 12
Air Quality Not available.
Flu Activity Local Activity
METAR KVPZ 061556Z AUTO 15004KT 4SM HZ BKN120 20/16 A3020 RMK AO2 SLP224 T02000161 TSNO

More Conditions Fewer Conditions

Pressure 30.19 in
Visibility 4.0 miles
Clouds Mostly Cloudy 12000 ft
Heat Index 76 °F
Dew Point 71 °F
Humidity 85%
Rainfall 0.00 in
Snow Depth Not available.
UV 5 out of 12
Pollen 8.20 out of 12
Air Quality Not available.
Flu Activity Local Activity
METAR KVPZ 061556Z AUTO 15004KT 4SM HZ BKN120 20/16 A3020 RMK AO2 SLP224 T02000161 TSNO

More Conditions Fewer Conditions

10-Day Weather Forecast

Almanac

Astronomy

May. 06, 2015 Rise Set
Actual Time
Civil Twilight
Nautical Twilight
Astronomical Twilight
Moon
Length of Visible Light
Length of Day
Tomorrow will be .
, % of the Moon is Illuminated

Today's Extremes

State Highs State Lows

Community

WunderPhotos

Upload Photos

1,818,949 photos uploaded!

WunderBlogs® & News

Nearby

Air Quality

  Air Quality AQ Index Pollutant
Not available.

Snow Depth

Station Depth Elevation

Earthquake Activity

City Distance Mag. Time & Date
Minimum magnitude displayed is 2.5.

Coastal Water Temperatures

Place Temperature

Stations

Nearby Weather Stations

Station Location Temp. Windchill Dew Point Humidity Wind Precip. Elev Updated Type